This is the latest recevied weather packets stored in our database for station/object SQ5OUZ-8. If no packets are shown the sender has not sent any weather packets the latest 10 day(s).
| Time | Temp. | Humidity | Pressure | Rain* | Wind** | Luminosity | Snow |
|---|---|---|---|---|---|---|---|
| 1777619401 | 18.89° C | 31% | 1027 hPa | - | - | - | - |
| 1777618383 | 17.78° C | 32% | 1027 hPa | - | - | - | - |
| 1777617309 | 17.22° C | 32% | 1027 hPa | - | - | - | - |
| 1777616212 | 16.11° C | 33% | 1027 hPa | - | - | - | - |
| 1777615107 | 13.89° C | 36% | 1027 hPa | - | - | - | - |
| 1777614143 | 11.67° C | 40% | 1027 hPa | - | - | - | - |
| 1777613080 | 10.56° C | 41% | 1027 hPa | - | - | - | - |
| 1777611907 | 9.44° C | 43% | 1028 hPa | - | - | - | - |
| 1777610814 | 9.44° C | 44% | 1028 hPa | - | - | - | - |
| 1777609731 | 9.44° C | 43% | 1028 hPa | - | - | - | - |
| 1777608569 | 8.89° C | 42% | 1028 hPa | - | - | - | - |
| 1777607565 | 8.89° C | 42% | 1028 hPa | - | - | - | - |
| 1777606550 | 8.33° C | 42% | 1028 hPa | - | - | - | - |
| 1777605497 | 8.89° C | 42% | 1028 hPa | - | - | - | - |
| 1777604490 | 8.89° C | 42% | 1028 hPa | - | - | - | - |
| 1777603317 | 8.33° C | 42% | 1028 hPa | - | - | - | - |
| 1777602127 | 8.89° C | 42% | 1028 hPa | - | - | - | - |
| 1777600933 | 8.89° C | 42% | 1028 hPa | - | - | - | - |
| 1777599914 | 8.89° C | 41% | 1028 hPa | - | - | - | - |
| 1777598857 | 8.89° C | 41% | 1028 hPa | - | - | - | - |
| 1777597883 | 8.89° C | 40% | 1028 hPa | - | - | - | - |
| 1777596773 | 8.89° C | 41% | 1028 hPa | - | - | - | - |
| 1777595754 | 8.89° C | 41% | 1028 hPa | - | - | - | - |
| 1777594762 | 8.89° C | 42% | 1028 hPa | - | - | - | - |
| 1777593743 | 9.44° C | 41% | 1028 hPa | - | - | - | - |
* Rain since midnight (hover to see other rain measurements)
** Current wind speed in m/s (hover to see current wind gust speed)